Domov               UVHVVR             MKGP            O straneh              
ZDRAVSTVENO VARSTVO RASTLIN
  MREŽA AGROMET. POSTAJ
 ► PROGNOSTIČNA OBVESTILA
AGROMETEOROLOŠKI PODATKI -
ARSO
OBVLADOVANJE TVEGANJ ZARADI
NEUGODNIH VREMENSKIH RAZMER
  ► NARAVNE NESREČE
  ► SUŠA/MOČA
  ► NAMAKANJE
  ► ŽLED (gozdarstvo)
KARTOGRAFSKI PRIKAZI
SPLETNE POVEZAVE
PROJEKTI IN PUBLIKACIJE

AGROMETEOROLOŠKA MREŽA: VREMENSKE POSTAJE IN FENOLOŠKA OPAZOVANJA

Pregled podatkov za lokacijo Gabernik-Rogaška, meteorološka postaja 37800

Pregled senzorjev na lokaciji

ID Ime Zadnja
vrednost
Datum in čas
zadnje
spremembe
(Lokalni čas)
Tip
senzorja
1828 Omočenost lista (U) 0 U 19.8.2019 05:30 A730WET
4946 Padavine (mm) 0 mm 19.8.2019 05:30 Generic 0.2 mm
1827 Relativna vlaga 2 m (% RH) 75.12 % RH 19.8.2019 05:30 50YA
1826 Temperatura 2 m (°C) 19.93 °C 19.8.2019 05:30 50YA

Pregled podatkov zadnjih 24 ur

Zap.
št.
Datum in čas
(Centralno
evropski čas)
Gabernik-Rogaška
Omočenost
lista
Padavine Relativna
vlaga
2
m
Temperatura
2
m
1 19.8.2019 06:00
2 19.8.2019 05:30
3 19.8.2019 05:00
4 19.8.2019 04:30 0 0 75.1 19.9
5 19.8.2019 04:00 0 0 74.4 20
6 19.8.2019 03:30 0 0 73.8 19.9
7 19.8.2019 03:00 0 0 72.7 20.2
8 19.8.2019 02:30 0 0 68.6 21.2
9 19.8.2019 02:00 0 0 65.6 21.9
10 19.8.2019 01:30 0 0 65.8 21.9
11 19.8.2019 01:00 0 0 64.5 22.3
12 19.8.2019 00:30 0 0 64.2 22.6
13 19.8.2019 00:00 0 0 64.7 22.6
14 18.8.2019 23:30 0 0 66.5 22.2
15 18.8.2019 23:00 0 0 64.5 22.7
16 18.8.2019 22:30 0 0 62.5 23.2
17 18.8.2019 22:00 0 0 63.7 23
18 18.8.2019 21:30 0 0 62.9 23.5
19 18.8.2019 21:00 0 0 62.2 23.9
20 18.8.2019 20:30 0 0 60.7 24.5
21 18.8.2019 20:00 0 0 62 24.3
22 18.8.2019 19:30 0 0 62 24.7
23 18.8.2019 19:00 0 0 61.8 25.5
24 18.8.2019 18:30 0 0 56.9 28.6
25 18.8.2019 18:00 0 0 54.6 30.5
26 18.8.2019 17:30 0 0 53 30.8
27 18.8.2019 17:00 0 0 53.3 30.7
28 18.8.2019 16:30 0 0 53.1 31
29 18.8.2019 16:00 0 0 53.8 30.6
30 18.8.2019 15:30 0 0 56.4 30.6
31 18.8.2019 15:00 0 0 53.9 31
32 18.8.2019 14:30 0 0 53.4 31.4
33 18.8.2019 14:00 0 0 53.1 31.6
34 18.8.2019 13:30 0 0 54.3 30.6
35 18.8.2019 13:00 0 0 56.9 29.9
36 18.8.2019 12:30 0 0 58.5 28.8
37 18.8.2019 12:00 0 0 61.3 28.4
38 18.8.2019 11:30 0 0 62.7 27.2
39 18.8.2019 11:00 0 0 70.3 24.2
40 18.8.2019 10:30 0 0 75.3 22.1
41 18.8.2019 10:00 0 0 77.3 21.4
42 18.8.2019 09:30 0 0 76.4 20.7
43 18.8.2019 09:00 0 0 77.1 19.9
44 18.8.2019 08:30 0 0 78.8 19.1
45 18.8.2019 08:00 0 0 78.4 18.8
46 18.8.2019 07:30 0 0 78.8 17.9
47 18.8.2019 07:00 0 0 79.1 17.7
48 18.8.2019 06:30 0 0 79.9 17.7
© 2011 Ministrstvo za kmetijstvo, gozdarstvo in prehrano. Vse pravice pridržane.